Time,TemperatureF,DewpointF,PressureIn,WindDirection,WindDirectionDegrees,WindSpeedMPH,WindSpeedGustMPH,Humidity,HourlyPrecipIn,Conditions,Clouds,dailyrainin,SoftwareType,DateUTC
2013-09-30 00:01:00,51.7,49.8,30.09,SE,124,0.0,0.0,93,0.00,,---,0.00,VWS V14.00,2013-09-30 04:01:00,
2013-09-30 00:02:00,51.8,49.8,30.09,SE,124,0.0,0.0,93,0.00,,---,0.00,VWS V14.00,2013-09-30 04:02:00,
2013-09-30 00:03:00,51.7,49.8,30.09,SE,124,0.0,0.0,93,0.00,,---,0.00,VWS V14.00,2013-09-30 04:03:00,
2013-09-30 00:08:00,51.8,50.1,30.09,SE,124,0.0,0.0,94,0.00,,---,0.00,VWS V14.00,2013-09-30 04:08:00,
2013-09-30 00:13:00,51.8,50.1,30.09,SE,124,0.0,0.0,94,0.00,,---,0.00,VWS V14.00,2013-09-30 04:13:00,
2013-09-30 00:18:00,52.1,50.4,30.09,SE,124,0.0,0.0,94,0.00,,---,0.00,VWS V14.00,2013-09-30 04:18:00,
2013-09-30 00:23:00,52.4,51.0,30.09,SE,124,0.0,0.0,95,0.00,,---,0.00,VWS V14.00,2013-09-30 04:23:00,
2013-09-30 00:28:00,52.7,51.3,30.09,SE,124,0.0,0.0,95,0.00,,---,0.00,VWS V14.00,2013-09-30 04:28:00,
2013-09-30 00:33:00,52.8,51.4,30.09,SE,124,0.0,0.0,95,0.00,,---,0.00,VWS V14.00,2013-09-30 04:33:00,
2013-09-30 00:38:00,52.8,51.1,30.08,SE,124,0.0,0.0,94,0.00,,---,0.00,VWS V14.00,2013-09-30 04:38:00,
2013-09-30 00:43:00,52.7,51.0,30.08,SE,124,0.0,0.0,94,0.00,,---,0.00,VWS V14.00,2013-09-30 04:43:00,
2013-09-30 00:48:00,52.6,50.9,30.08,SE,124,0.0,0.0,94,0.00,,---,0.00,VWS V14.00,2013-09-30 04:48:00,
2013-09-30 00:53:00,52.4,50.7,30.08,SE,124,0.0,0.0,94,0.00,,---,0.00,VWS V14.00,2013-09-30 04:53:00,
2013-09-30 00:58:00,52.4,50.7,30.08,SE,124,0.0,0.0,94,0.00,,---,0.00,VWS V14.00,2013-09-30 04:58:00,
2013-09-30 01:03:00,52.3,50.6,30.09,SE,124,0.0,0.0,94,0.00,,---,0.00,VWS V14.00,2013-09-30 05:03:00,
2013-09-30 01:08:00,52.2,50.5,30.09,SE,124,0.0,0.0,94,0.00,,---,0.00,VWS V14.00,2013-09-30 05:08:00,
2013-09-30 01:13:00,51.9,50.2,30.09,SE,124,0.0,0.0,94,0.00,,---,0.00,VWS V14.00,2013-09-30 05:13:00,
2013-09-30 01:18:00,51.9,50.2,30.09,SE,124,0.0,0.0,94,0.00,,---,0.00,VWS V14.00,2013-09-30 05:18:00,
2013-09-30 01:23:00,51.9,50.2,30.09,SE,124,0.0,0.0,94,0.00,,---,0.00,VWS V14.00,2013-09-30 05:23:00,
2013-09-30 01:28:00,51.9,50.2,30.09,SE,124,0.0,0.0,94,0.00,,---,0.00,VWS V14.00,2013-09-30 05:28:00,
2013-09-30 01:33:00,51.9,50.2,30.09,SE,124,0.0,0.0,94,0.00,,---,0.00,VWS V14.00,2013-09-30 05:33:00,
2013-09-30 01:39:00,51.8,50.1,30.09,SE,124,0.0,0.0,94,0.00,,---,0.00,VWS V14.00,2013-09-30 05:39:00,
2013-09-30 01:44:00,51.7,50.0,30.09,SE,124,0.0,0.0,94,0.00,,---,0.00,VWS V14.00,2013-09-30 05:44:00,
2013-09-30 01:49:00,51.6,49.9,30.09,SE,124,0.0,0.0,94,0.00,,---,0.00,VWS V14.00,2013-09-30 05:49:00,
2013-09-30 01:54:00,51.4,49.7,30.09,SE,124,0.0,0.0,94,0.00,,---,0.00,VWS V14.00,2013-09-30 05:54:00,
2013-09-30 01:59:00,51.2,49.5,30.09,SE,124,0.0,0.0,94,0.00,,---,0.00,VWS V14.00,2013-09-30 05:59:00,
2013-09-30 02:04:00,51.2,49.5,30.09,SE,124,0.0,0.0,94,0.00,,---,0.00,VWS V14.00,2013-09-30 06:04:00,
2013-09-30 02:09:00,51.4,50.0,30.09,SE,124,0.0,0.0,95,0.00,,---,0.00,VWS V14.00,2013-09-30 06:09:00,
2013-09-30 02:14:00,51.5,50.1,30.09,SE,124,0.0,0.0,95,0.00,,---,0.00,VWS V14.00,2013-09-30 06:14:00,
2013-09-30 02:19:00,51.4,50.0,30.09,SE,124,0.0,0.0,95,0.00,,---,0.00,VWS V14.00,2013-09-30 06:19:00,
2013-09-30 02:24:00,51.3,49.9,30.09,SE,124,0.0,0.0,95,0.00,,---,0.00,VWS V14.00,2013-09-30 06:24:00,
2013-09-30 02:29:00,51.2,49.8,30.09,SE,124,0.0,0.0,95,0.00,,---,0.00,VWS V14.00,2013-09-30 06:29:00,
2013-09-30 02:35:00,51.1,49.7,30.08,SE,124,0.0,0.0,95,0.00,,---,0.00,VWS V14.00,2013-09-30 06:35:00,
2013-09-30 02:40:00,51.0,49.3,30.08,SE,124,0.0,0.0,94,0.00,,---,0.00,VWS V14.00,2013-09-30 06:40:00,
2013-09-30 02:45:00,50.9,49.2,30.08,SE,124,0.0,0.0,94,0.00,,---,0.00,VWS V14.00,2013-09-30 06:45:00,
2013-09-30 02:50:00,50.8,49.1,30.08,SE,124,0.0,0.0,94,0.00,,---,0.00,VWS V14.00,2013-09-30 06:50:00,
2013-09-30 02:55:00,50.8,49.4,30.08,SE,124,0.0,0.0,95,0.00,,---,0.00,VWS V14.00,2013-09-30 06:55:00,
2013-09-30 03:00:00,50.8,49.4,30.08,SE,124,0.0,0.0,95,0.00,,---,0.00,VWS V14.00,2013-09-30 07:00:00,
2013-09-30 03:05:00,50.8,49.4,30.08,SE,124,0.0,0.0,95,0.00,,---,0.00,VWS V14.00,2013-09-30 07:05:00,
2013-09-30 03:10:00,50.8,49.4,30.08,SE,124,0.0,0.0,95,0.00,,---,0.00,VWS V14.00,2013-09-30 07:10:00,
2013-09-30 03:15:00,50.9,49.5,30.07,SE,124,0.0,0.0,95,0.00,,---,0.00,VWS V14.00,2013-09-30 07:15:00,
2013-09-30 03:20:00,50.9,49.5,30.07,SE,124,0.0,0.0,95,0.00,,---,0.00,VWS V14.00,2013-09-30 07:20:00,
2013-09-30 03:25:00,50.9,49.5,30.07,SE,124,0.0,0.0,95,0.00,,---,0.00,VWS V14.00,2013-09-30 07:25:00,
2013-09-30 03:30:00,50.9,49.5,30.07,SE,124,0.0,0.0,95,0.00,,---,0.00,VWS V14.00,2013-09-30 07:30:00,
2013-09-30 03:35:00,50.8,49.4,30.07,SE,124,0.0,0.0,95,0.00,,---,0.00,VWS V14.00,2013-09-30 07:35:00,
2013-09-30 03:40:00,50.6,49.2,30.07,SE,124,0.0,0.0,95,0.00,,---,0.00,VWS V14.00,2013-09-30 07:40:00,
2013-09-30 03:45:00,50.7,49.3,30.07,SE,124,0.0,0.0,95,0.00,,---,0.00,VWS V14.00,2013-09-30 07:45:00,
2013-09-30 03:50:00,50.8,49.4,30.07,SE,124,0.0,0.0,95,0.00,,---,0.00,VWS V14.00,2013-09-30 07:50:00,
2013-09-30 03:56:00,50.9,49.5,30.07,SE,124,0.0,0.0,95,0.00,,---,0.00,VWS V14.00,2013-09-30 07:56:00,
2013-09-30 04:01:00,50.9,49.5,30.07,SE,124,0.0,0.0,95,0.00,,---,0.00,VWS V14.00,2013-09-30 08:01:00,
2013-09-30 04:06:00,51.0,49.6,30.07,SE,124,0.0,0.0,95,0.00,,---,0.00,VWS V14.00,2013-09-30 08:06:00,
2013-09-30 04:11:00,51.2,49.8,30.07,SE,124,0.0,0.0,95,0.00,,---,0.00,VWS V14.00,2013-09-30 08:11:00,
2013-09-30 04:16:00,51.2,49.8,30.07,SE,124,0.0,0.0,95,0.00,,---,0.00,VWS V14.00,2013-09-30 08:16:00,
2013-09-30 04:21:00,51.3,49.9,30.07,SE,124,0.0,0.0,95,0.00,,---,0.00,VWS V14.00,2013-09-30 08:21:00,
2013-09-30 04:26:00,51.3,49.9,30.07,SE,124,0.0,0.0,95,0.00,,---,0.00,VWS V14.00,2013-09-30 08:26:00,
2013-09-30 04:31:00,51.3,49.9,30.07,SE,124,0.0,0.0,95,0.00,,---,0.00,VWS V14.00,2013-09-30 08:31:00,
2013-09-30 04:36:00,51.3,49.9,30.07,SE,124,0.0,0.0,95,0.00,,---,0.00,VWS V14.00,2013-09-30 08:36:00,
2013-09-30 04:41:00,51.2,49.8,30.07,SE,124,0.0,0.0,95,0.00,,---,0.00,VWS V14.00,2013-09-30 08:41:00,
2013-09-30 04:46:00,51.0,49.6,30.06,SE,124,0.0,0.0,95,0.00,,---,0.00,VWS V14.00,2013-09-30 08:46:00,
2013-09-30 04:52:00,50.9,49.5,30.07,SE,124,0.0,0.0,95,0.00,,---,0.00,VWS V14.00,2013-09-30 08:52:00,
2013-09-30 04:57:00,50.9,49.5,30.07,SE,124,0.0,0.0,95,0.00,,---,0.00,VWS V14.00,2013-09-30 08:57:00,
2013-09-30 05:02:00,50.8,49.4,30.07,SE,124,0.0,0.0,95,0.00,,---,0.00,VWS V14.00,2013-09-30 09:02:00,
2013-09-30 05:07:00,50.7,49.3,30.07,SE,124,0.0,0.0,95,0.00,,---,0.00,VWS V14.00,2013-09-30 09:07:00,
2013-09-30 05:12:00,50.6,49.2,30.07,SE,124,0.0,0.0,95,0.00,,---,0.00,VWS V14.00,2013-09-30 09:12:00,
2013-09-30 05:17:00,50.5,49.1,30.07,SE,124,0.0,0.0,95,0.00,,---,0.00,VWS V14.00,2013-09-30 09:17:00,
2013-09-30 05:22:00,50.5,49.1,30.07,SE,124,0.0,0.0,95,0.00,,---,0.00,VWS V14.00,2013-09-30 09:22:00,
2013-09-30 05:27:00,50.6,49.2,30.07,SE,124,0.0,0.0,95,0.00,,---,0.00,VWS V14.00,2013-09-30 09:27:00,
2013-09-30 05:32:00,50.7,49.3,30.07,SE,124,0.0,0.0,95,0.00,,---,0.00,VWS V14.00,2013-09-30 09:32:00,
2013-09-30 05:37:00,51.1,50.0,30.07,SE,124,0.0,0.0,96,0.00,,---,0.00,VWS V14.00,2013-09-30 09:37:00,
2013-09-30 05:42:00,51.5,50.4,30.07,SE,124,0.0,0.0,96,0.00,,---,0.00,VWS V14.00,2013-09-30 09:42:00,
2013-09-30 05:47:00,51.6,50.5,30.07,SE,124,0.0,1.0,96,0.00,,---,0.00,VWS V14.00,2013-09-30 09:47:00,
2013-09-30 05:52:00,51.6,50.5,30.07,SE,124,0.0,0.0,96,0.00,,---,0.00,VWS V14.00,2013-09-30 09:52:00,
2013-09-30 05:58:00,51.5,50.4,30.07,SE,124,0.0,0.0,96,0.00,,---,0.00,VWS V14.00,2013-09-30 09:58:00,
2013-09-30 06:03:00,51.4,50.0,30.07,SE,124,0.0,0.0,95,0.00,,---,0.00,VWS V14.00,2013-09-30 10:03:00,
2013-09-30 06:08:00,51.3,50.2,30.07,SE,124,0.0,0.0,96,0.00,,---,0.00,VWS V14.00,2013-09-30 10:08:00,
2013-09-30 06:13:00,51.2,50.1,30.07,SE,124,0.0,0.0,96,0.00,,---,0.00,VWS V14.00,2013-09-30 10:13:00,
2013-09-30 06:18:00,51.2,50.1,30.08,SE,124,0.0,0.0,96,0.00,,---,0.00,VWS V14.00,2013-09-30 10:18:00,
2013-09-30 06:23:00,51.2,50.1,30.08,SE,124,0.0,0.0,96,0.00,,---,0.00,VWS V14.00,2013-09-30 10:23:00,
2013-09-30 06:28:00,51.1,50.0,30.08,SE,124,0.0,0.0,96,0.00,,---,0.00,VWS V14.00,2013-09-30 10:28:00,
2013-09-30 06:33:00,51.0,49.9,30.08,SE,124,0.0,0.0,96,0.00,,---,0.00,VWS V14.00,2013-09-30 10:33:00,
2013-09-30 06:38:00,51.2,50.1,30.08,SE,124,0.0,0.0,96,0.00,,---,0.00,VWS V14.00,2013-09-30 10:38:00,
2013-09-30 06:43:00,51.4,50.3,30.08,SE,124,0.0,0.0,96,0.00,,---,0.00,VWS V14.00,2013-09-30 10:43:00,
2013-09-30 06:48:00,51.6,50.5,30.08,SE,124,0.0,0.0,96,0.00,,---,0.00,VWS V14.00,2013-09-30 10:48:00,
2013-09-30 06:53:00,51.8,50.7,30.08,SE,124,0.0,0.0,96,0.00,,---,0.00,VWS V14.00,2013-09-30 10:53:00,
2013-09-30 06:58:00,51.9,50.8,30.08,SE,124,0.0,0.0,96,0.00,,---,0.00,VWS V14.00,2013-09-30 10:58:00,
2013-09-30 07:03:00,52.0,50.9,30.08,SE,124,0.0,0.0,96,0.00,,---,0.00,VWS V14.00,2013-09-30 11:03:00,
2013-09-30 07:08:00,52.0,50.9,30.09,SE,124,0.0,0.0,96,0.00,,---,0.00,VWS V14.00,2013-09-30 11:08:00,
2013-09-30 07:14:00,51.9,50.8,30.09,SE,124,0.0,0.0,96,0.00,,---,0.00,VWS V14.00,2013-09-30 11:14:00,
2013-09-30 07:19:00,51.8,50.7,30.09,SE,124,0.0,0.0,96,0.00,,---,0.00,VWS V14.00,2013-09-30 11:19:00,
2013-09-30 07:24:00,51.8,50.7,30.09,SE,124,0.0,0.0,96,0.00,,---,0.00,VWS V14.00,2013-09-30 11:24:00,
2013-09-30 07:29:00,51.8,50.7,30.08,SE,124,0.0,0.0,96,0.00,,---,0.00,VWS V14.00,2013-09-30 11:29:00,
2013-09-30 07:34:00,51.9,50.8,30.08,SE,124,0.0,0.0,96,0.00,,---,0.00,VWS V14.00,2013-09-30 11:34:00,
2013-09-30 07:40:00,52.1,51.0,30.08,SE,124,0.0,0.0,96,0.00,,---,0.00,VWS V14.00,2013-09-30 11:40:00,
2013-09-30 07:45:00,52.2,51.1,30.08,SE,124,0.0,0.0,96,0.00,,---,0.00,VWS V14.00,2013-09-30 11:45:00,
2013-09-30 07:50:00,52.4,51.3,30.08,SE,124,0.0,0.0,96,0.00,,---,0.00,VWS V14.00,2013-09-30 11:50:00,
2013-09-30 07:55:00,52.7,51.6,30.08,SE,124,0.0,0.0,96,0.00,,---,0.00,VWS V14.00,2013-09-30 11:55:00,
2013-09-30 08:00:00,52.9,51.8,30.08,SE,124,0.0,0.0,96,0.00,,---,0.00,VWS V14.00,2013-09-30 12:00:00,
2013-09-30 08:05:00,53.1,52.0,30.08,SE,124,0.0,0.0,96,0.00,,---,0.00,VWS V14.00,2013-09-30 12:05:00,
2013-09-30 08:10:00,53.3,52.2,30.08,SE,124,0.0,0.0,96,0.00,,---,0.00,VWS V14.00,2013-09-30 12:10:00,
2013-09-30 08:15:00,53.6,52.5,30.08,SE,124,0.0,0.0,96,0.00,,---,0.00,VWS V14.00,2013-09-30 12:15:00,
2013-09-30 08:20:00,53.9,52.8,30.09,SE,124,0.0,0.0,96,0.00,,---,0.00,VWS V14.00,2013-09-30 12:20:00,
2013-09-30 08:25:00,54.2,53.1,30.09,SE,124,0.0,0.0,96,0.00,,---,0.00,VWS V14.00,2013-09-30 12:25:00,
2013-09-30 08:30:00,54.5,53.4,30.09,SE,124,0.0,0.0,96,0.00,,---,0.00,VWS V14.00,2013-09-30 12:30:00,
2013-09-30 08:35:00,54.8,53.7,30.09,SE,124,0.0,0.0,96,0.00,,---,0.00,VWS V14.00,2013-09-30 12:35:00,
2013-09-30 08:40:00,55.1,54.0,30.09,SE,124,0.0,0.0,96,0.00,,---,0.00,VWS V14.00,2013-09-30 12:40:00,
2013-09-30 08:45:00,55.5,54.4,30.09,SE,124,0.0,0.0,96,0.00,,---,0.00,VWS V14.00,2013-09-30 12:45:00,
2013-09-30 08:50:00,55.9,54.5,30.09,SE,124,0.0,0.0,95,0.00,,---,0.00,VWS V14.00,2013-09-30 12:50:00,
2013-09-30 08:55:00,56.3,54.9,30.09,SE,124,0.0,0.0,95,0.00,,---,0.00,VWS V14.00,2013-09-30 12:55:00,
2013-09-30 09:01:00,56.8,55.4,30.08,ESE,118,0.0,0.0,95,0.00,,---,0.00,VWS V14.00,2013-09-30 13:01:00,
2013-09-30 09:06:00,57.3,55.9,30.09,ESE,118,0.0,0.0,95,0.00,,---,0.00,VWS V14.00,2013-09-30 13:06:00,
2013-09-30 09:11:00,57.7,56.0,30.09,ESE,118,0.0,0.0,94,0.00,,---,0.00,VWS V14.00,2013-09-30 13:11:00,
2013-09-30 09:16:00,58.2,56.5,30.09,ESE,118,0.0,0.0,94,0.00,,---,0.00,VWS V14.00,2013-09-30 13:16:00,
2013-09-30 09:21:00,58.6,56.6,30.09,ESE,118,0.0,0.0,93,0.00,,---,0.00,VWS V14.00,2013-09-30 13:21:00,
2013-09-30 09:26:00,59.0,56.7,30.09,ESE,118,0.0,0.0,92,0.00,,---,0.00,VWS V14.00,2013-09-30 13:26:00,
2013-09-30 09:31:00,59.4,56.8,30.09,ESE,118,0.0,0.0,91,0.00,,---,0.00,VWS V14.00,2013-09-30 13:31:00,
2013-09-30 09:36:00,59.7,56.8,30.09,ESE,118,0.0,0.0,90,0.00,,---,0.00,VWS V14.00,2013-09-30 13:36:00,
2013-09-30 09:41:00,60.0,57.1,30.09,ESE,118,0.0,0.0,90,0.00,,---,0.00,VWS V14.00,2013-09-30 13:41:00,
2013-09-30 09:46:00,60.3,56.7,30.09,ESE,118,0.0,1.0,88,0.00,,---,0.00,VWS V14.00,2013-09-30 13:46:00,
2013-09-30 09:51:00,60.5,56.6,30.09,NNW,342,0.0,0.0,87,0.00,,---,0.00,VWS V14.00,2013-09-30 13:51:00,
2013-09-30 09:56:00,60.9,57.3,30.08,NNW,342,0.0,0.0,88,0.00,,---,0.00,VWS V14.00,2013-09-30 13:56:00,
2013-09-30 10:01:00,61.2,57.0,30.08,NNW,342,0.0,0.0,86,0.00,,---,0.00,VWS V14.00,2013-09-30 14:01:00,
2013-09-30 10:06:00,61.6,57.0,30.08,NNW,342,0.0,0.0,85,0.00,,---,0.00,VWS V14.00,2013-09-30 14:06:00,
2013-09-30 10:11:00,61.8,56.9,30.08,NNW,342,1.0,1.0,84,0.00,,---,0.00,VWS V14.00,2013-09-30 14:11:00,
2013-09-30 10:16:00,62.2,57.6,30.08,NNW,343,0.0,0.0,85,0.00,,---,0.00,VWS V14.00,2013-09-30 14:16:00,
2013-09-30 10:22:00,62.6,57.7,30.08,NNW,343,0.0,1.0,84,0.00,,---,0.00,VWS V14.00,2013-09-30 14:22:00,
2013-09-30 10:27:00,62.9,57.0,30.08,NNW,343,0.0,0.0,81,0.00,,---,0.00,VWS V14.00,2013-09-30 14:27:00,
2013-09-30 10:32:00,63.3,56.7,30.08,NNW,343,0.0,0.0,79,0.00,,---,0.00,VWS V14.00,2013-09-30 14:32:00,
2013-09-30 10:37:00,63.8,57.2,30.08,NNW,343,0.0,0.0,79,0.00,,---,0.00,VWS V14.00,2013-09-30 14:37:00,
2013-09-30 10:42:00,64.3,57.0,30.08,NNE,30,0.0,0.0,77,0.00,,---,0.00,VWS V14.00,2013-09-30 14:42:00,
2013-09-30 10:47:00,64.8,57.4,30.08,NNE,30,1.0,1.0,77,0.00,,---,0.00,VWS V14.00,2013-09-30 14:47:00,
2013-09-30 10:52:00,65.1,57.0,30.08,ENE,67,0.0,0.0,75,0.00,,---,0.00,VWS V14.00,2013-09-30 14:52:00,
2013-09-30 10:57:00,65.5,57.4,30.08,ENE,67,0.0,0.0,75,0.00,,---,0.00,VWS V14.00,2013-09-30 14:57:00,
2013-09-30 11:03:00,65.7,57.2,30.08,ENE,67,0.0,0.0,74,0.00,,---,0.00,VWS V14.00,2013-09-30 15:03:00,
2013-09-30 11:08:00,65.8,57.3,30.08,ENE,67,0.0,0.0,74,0.00,,---,0.00,VWS V14.00,2013-09-30 15:08:00,
2013-09-30 11:13:00,66.3,57.8,30.08,ENE,67,0.0,0.0,74,0.00,,---,0.00,VWS V14.00,2013-09-30 15:13:00,
2013-09-30 11:18:00,66.8,57.5,30.07,ENE,67,0.0,1.0,72,0.00,,---,0.00,VWS V14.00,2013-09-30 15:18:00,
2013-09-30 11:23:00,67.1,56.6,30.07,SSE,152,0.0,0.0,69,0.00,,---,0.00,VWS V14.00,2013-09-30 15:23:00,
2013-09-30 11:28:00,67.0,56.5,30.07,SSE,152,2.0,2.0,69,0.00,,---,0.00,VWS V14.00,2013-09-30 15:28:00,
2013-09-30 11:33:00,66.9,56.4,30.07,NW,313,3.0,3.0,69,0.00,,---,0.00,VWS V14.00,2013-09-30 15:33:00,
2013-09-30 11:38:00,66.7,55.8,30.07,NNW,335,0.0,0.0,68,0.00,,---,0.00,VWS V14.00,2013-09-30 15:38:00,
2013-09-30 11:43:00,67.0,56.5,30.06,North,360,1.0,1.0,69,0.00,,---,0.00,VWS V14.00,2013-09-30 15:43:00,
2013-09-30 11:49:00,67.3,56.0,30.06,North,360,0.0,1.0,67,0.00,,---,0.00,VWS V14.00,2013-09-30 15:49:00,
2013-09-30 11:54:00,67.4,56.1,30.06,North,360,0.0,0.0,67,0.00,,---,0.00,VWS V14.00,2013-09-30 15:54:00,
2013-09-30 11:59:00,67.9,56.1,30.06,NNE,13,0.0,1.0,66,0.00,,---,0.00,VWS V14.00,2013-09-30 15:59:00,
2013-09-30 12:04:00,68.4,56.2,30.05,NNE,13,0.0,0.0,65,0.00,,---,0.00,VWS V14.00,2013-09-30 16:04:00,
2013-09-30 12:09:00,68.5,55.9,30.05,NNE,13,0.0,0.0,64,0.00,,---,0.00,VWS V14.00,2013-09-30 16:09:00,
2013-09-30 12:14:00,68.7,56.0,30.05,NNE,13,0.0,0.0,64,0.00,,---,0.00,VWS V14.00,2013-09-30 16:14:00,
2013-09-30 12:19:00,69.2,56.5,30.05,NNE,13,1.0,1.0,64,0.00,,---,0.00,VWS V14.00,2013-09-30 16:19:00,
2013-09-30 12:24:00,68.9,54.9,30.05,NNE,13,0.0,1.0,61,0.00,,---,0.00,VWS V14.00,2013-09-30 16:24:00,
2013-09-30 12:29:00,68.6,54.6,30.05,NW,314,0.0,0.0,61,0.00,,---,0.00,VWS V14.00,2013-09-30 16:29:00,
2013-09-30 12:34:00,68.9,56.2,30.05,North,5,0.0,0.0,64,0.00,,---,0.00,VWS V14.00,2013-09-30 16:34:00,
2013-09-30 12:39:00,69.2,56.1,30.04,NNW,343,0.0,0.0,63,0.00,,---,0.00,VWS V14.00,2013-09-30 16:39:00,
2013-09-30 12:44:00,69.6,56.5,30.05,NNW,344,0.0,0.0,63,0.00,,---,0.00,VWS V14.00,2013-09-30 16:44:00,
2013-09-30 12:50:00,69.4,54.5,30.05,NNW,343,0.0,1.0,59,0.00,,---,0.00,VWS V14.00,2013-09-30 16:50:00,
2013-09-30 12:55:00,69.0,54.5,30.04,NNW,342,0.0,0.0,60,0.00,,---,0.00,VWS V14.00,2013-09-30 16:55:00,
2013-09-30 13:00:00,69.3,55.3,30.04,NNW,342,0.0,1.0,61,0.00,,---,0.00,VWS V14.00,2013-09-30 17:00:00,
2013-09-30 13:05:00,69.7,55.2,30.04,NNW,342,0.0,0.0,60,0.00,,---,0.00,VWS V14.00,2013-09-30 17:05:00,
2013-09-30 13:10:00,70.1,55.1,30.03,NNW,342,0.0,0.0,59,0.00,,---,0.00,VWS V14.00,2013-09-30 17:10:00,
2013-09-30 13:15:00,70.6,56.1,30.03,NNW,342,0.0,0.0,60,0.00,,---,0.00,VWS V14.00,2013-09-30 17:15:00,
2013-09-30 13:20:00,70.8,56.2,30.03,North,360,0.0,0.0,60,0.00,,---,0.00,VWS V14.00,2013-09-30 17:20:00,
2013-09-30 13:25:00,70.6,55.1,30.03,North,360,0.0,0.0,58,0.00,,---,0.00,VWS V14.00,2013-09-30 17:25:00,
2013-09-30 13:30:00,70.4,54.5,30.03,North,355,2.0,2.0,57,0.00,,---,0.00,VWS V14.00,2013-09-30 17:30:00,
2013-09-30 13:35:00,70.6,55.1,30.03,NNE,33,0.0,1.0,58,0.00,,---,0.00,VWS V14.00,2013-09-30 17:35:00,
2013-09-30 13:40:00,70.8,54.8,30.03,NNE,33,0.0,0.0,57,0.00,,---,0.00,VWS V14.00,2013-09-30 17:40:00,
2013-09-30 13:45:00,70.9,54.9,30.03,NNE,33,0.0,0.0,57,0.00,,---,0.00,VWS V14.00,2013-09-30 17:45:00,
2013-09-30 13:51:00,71.2,55.2,30.03,NNE,33,0.0,1.0,57,0.00,,---,0.00,VWS V14.00,2013-09-30 17:51:00,
2013-09-30 13:56:00,71.5,55.5,30.03,ENE,78,2.0,2.0,57,0.00,,---,0.00,VWS V14.00,2013-09-30 17:56:00,
2013-09-30 14:01:00,71.4,54.4,30.03,North,360,0.0,0.0,55,0.00,,---,0.00,VWS V14.00,2013-09-30 18:01:00,
2013-09-30 14:07:00,71.6,55.1,30.02,North,360,0.0,0.0,56,0.00,,---,0.00,VWS V14.00,2013-09-30 18:07:00,
2013-09-30 14:12:00,71.8,54.3,30.02,North,360,0.0,0.0,54,0.00,,---,0.00,VWS V14.00,2013-09-30 18:12:00,
2013-09-30 14:17:00,71.6,54.1,30.02,ENE,68,1.0,1.0,54,0.00,,---,0.00,VWS V14.00,2013-09-30 18:17:00,
2013-09-30 14:22:00,70.8,53.8,30.02,ENE,67,0.0,0.0,55,0.00,,---,0.00,VWS V14.00,2013-09-30 18:22:00,
2013-09-30 14:27:00,70.3,53.9,30.02,ENE,67,0.0,1.0,56,0.00,,---,0.00,VWS V14.00,2013-09-30 18:27:00,
2013-09-30 14:32:00,69.8,54.4,30.02,ENE,67,0.0,0.0,58,0.00,,---,0.00,VWS V14.00,2013-09-30 18:32:00,
2013-09-30 14:37:00,69.6,54.2,30.02,ENE,67,0.0,0.0,58,0.00,,---,0.00,VWS V14.00,2013-09-30 18:37:00,
2013-09-30 14:42:00,69.6,55.1,30.02,ENE,67,0.0,0.0,60,0.00,,---,0.00,VWS V14.00,2013-09-30 18:42:00,
2013-09-30 14:47:00,69.6,54.7,30.02,ENE,67,0.0,0.0,59,0.00,,---,0.00,VWS V14.00,2013-09-30 18:47:00,
2013-09-30 14:52:00,69.6,54.2,30.02,ENE,67,0.0,0.0,58,0.00,,---,0.00,VWS V14.00,2013-09-30 18:52:00,
2013-09-30 14:57:00,69.5,54.6,30.01,ENE,67,0.0,0.0,59,0.00,,---,0.00,VWS V14.00,2013-09-30 18:57:00,
2013-09-30 15:02:00,69.7,54.8,30.01,ENE,67,0.0,0.0,59,0.00,,---,0.00,VWS V14.00,2013-09-30 19:02:00,
2013-09-30 15:07:00,70.0,54.1,30.01,ENE,67,0.0,0.0,57,0.00,,---,0.00,VWS V14.00,2013-09-30 19:07:00,
2013-09-30 15:12:00,70.9,54.4,30.01,ENE,67,0.0,0.0,56,0.00,,---,0.00,VWS V14.00,2013-09-30 19:12:00,
2013-09-30 15:17:00,71.6,55.1,30.01,SSW,201,0.0,0.0,56,0.00,,---,0.00,VWS V14.00,2013-09-30 19:17:00,
2013-09-30 15:22:00,72.3,55.2,30.01,South,182,0.0,0.0,55,0.00,,---,0.00,VWS V14.00,2013-09-30 19:22:00,
2013-09-30 15:27:00,73.0,55.4,30.01,South,182,0.0,0.0,54,0.00,,---,0.00,VWS V14.00,2013-09-30 19:27:00,
2013-09-30 15:33:00,73.6,54.4,30.01,SSE,167,0.0,0.0,51,0.00,,---,0.00,VWS V14.00,2013-09-30 19:33:00,
2013-09-30 15:38:00,74.2,54.4,30.01,SSE,167,0.0,0.0,50,0.00,,---,0.00,VWS V14.00,2013-09-30 19:38:00,
2013-09-30 15:43:00,74.6,55.8,30.01,ENE,74,2.0,2.0,52,0.00,,---,0.00,VWS V14.00,2013-09-30 19:43:00,
2013-09-30 15:48:00,73.7,56.5,30.01,East,96,1.0,4.0,55,0.00,,---,0.00,VWS V14.00,2013-09-30 19:48:00,
2013-09-30 15:53:00,72.8,56.2,30.01,East,96,0.0,0.0,56,0.00,,---,0.00,VWS V14.00,2013-09-30 19:53:00,
2013-09-30 15:58:00,72.2,55.7,30.01,East,96,1.0,1.0,56,0.00,,---,0.00,VWS V14.00,2013-09-30 19:58:00,
2013-09-30 16:03:00,71.6,55.1,30.01,East,96,2.0,2.0,56,0.00,,---,0.00,VWS V14.00,2013-09-30 20:03:00,
2013-09-30 16:08:00,71.2,55.7,30.00,East,96,0.0,0.0,58,0.00,,---,0.00,VWS V14.00,2013-09-30 20:08:00,
2013-09-30 16:13:00,70.9,55.9,30.00,East,96,1.0,1.0,59,0.00,,---,0.00,VWS V14.00,2013-09-30 20:13:00,
2013-09-30 16:18:00,70.2,54.8,30.00,East,96,0.0,1.0,58,0.00,,---,0.00,VWS V14.00,2013-09-30 20:18:00,
2013-09-30 16:23:00,69.5,55.0,30.00,East,96,0.0,1.0,60,0.00,,---,0.00,VWS V14.00,2013-09-30 20:23:00,
2013-09-30 16:28:00,69.2,56.1,30.00,East,96,0.0,0.0,63,0.00,,---,0.00,VWS V14.00,2013-09-30 20:28:00,
2013-09-30 16:33:00,69.3,56.2,30.00,East,96,0.0,0.0,63,0.00,,---,0.00,VWS V14.00,2013-09-30 20:33:00,
2013-09-30 16:38:00,69.4,56.7,30.00,East,82,0.0,0.0,64,0.00,,---,0.00,VWS V14.00,2013-09-30 20:38:00,
2013-09-30 16:43:00,69.1,56.8,30.00,East,82,0.0,0.0,65,0.00,,---,0.00,VWS V14.00,2013-09-30 20:43:00,
2013-09-30 16:48:00,68.9,57.1,30.00,SSW,193,0.0,0.0,66,0.00,,---,0.00,VWS V14.00,2013-09-30 20:48:00,
2013-09-30 16:53:00,68.8,57.4,30.00,SSW,193,1.0,1.0,67,0.00,,---,0.00,VWS V14.00,2013-09-30 20:53:00,
2013-09-30 16:58:00,68.6,56.8,30.00,ESE,108,0.0,0.0,66,0.00,,---,0.00,VWS V14.00,2013-09-30 20:58:00,
2013-09-30 17:03:00,68.5,57.5,30.00,SSE,164,0.0,0.0,68,0.00,,---,0.00,VWS V14.00,2013-09-30 21:03:00,
2013-09-30 17:08:00,68.3,57.3,30.00,South,182,0.0,3.0,68,0.00,,---,0.00,VWS V14.00,2013-09-30 21:08:00,
2013-09-30 17:14:00,68.1,57.2,30.00,SE,144,0.0,0.0,68,0.00,,---,0.00,VWS V14.00,2013-09-30 21:14:00,
2013-09-30 17:19:00,67.9,57.0,30.00,South,189,0.0,1.0,68,0.00,,---,0.00,VWS V14.00,2013-09-30 21:19:00,
2013-09-30 17:24:00,67.8,57.7,30.00,South,189,0.0,0.0,70,0.00,,---,0.00,VWS V14.00,2013-09-30 21:24:00,
2013-09-30 17:29:00,67.6,57.1,30.00,South,189,0.0,0.0,69,0.00,,---,0.00,VWS V14.00,2013-09-30 21:29:00,
2013-09-30 17:34:00,67.4,57.3,30.00,South,189,0.0,0.0,70,0.00,,---,0.00,VWS V14.00,2013-09-30 21:34:00,
2013-09-30 17:39:00,67.2,57.5,30.00,South,189,0.0,0.0,71,0.00,,---,0.00,VWS V14.00,2013-09-30 21:39:00,
2013-09-30 17:44:00,66.9,57.6,30.00,South,189,0.0,0.0,72,0.00,,---,0.00,VWS V14.00,2013-09-30 21:44:00,
2013-09-30 17:49:00,66.8,57.5,29.99,South,189,0.0,0.0,72,0.00,,---,0.00,VWS V14.00,2013-09-30 21:49:00,
2013-09-30 17:54:00,66.6,57.3,30.00,South,189,0.0,0.0,72,0.00,,---,0.00,VWS V14.00,2013-09-30 21:54:00,
2013-09-30 17:59:00,66.5,57.2,30.00,South,189,0.0,0.0,72,0.00,,---,0.00,VWS V14.00,2013-09-30 21:59:00,
2013-09-30 18:04:00,66.3,57.4,30.00,South,189,0.0,0.0,73,0.00,,---,0.00,VWS V14.00,2013-09-30 22:04:00,
2013-09-30 18:09:00,66.1,57.2,30.00,South,189,0.0,0.0,73,0.00,,---,0.00,VWS V14.00,2013-09-30 22:09:00,
2013-09-30 18:14:00,65.9,57.0,30.00,South,189,0.0,0.0,73,0.00,,---,0.00,VWS V14.00,2013-09-30 22:14:00,
2013-09-30 18:19:00,65.7,56.8,30.00,South,189,0.0,0.0,73,0.00,,---,0.00,VWS V14.00,2013-09-30 22:19:00,
2013-09-30 18:25:00,65.5,56.6,30.00,South,189,0.0,0.0,73,0.00,,---,0.00,VWS V14.00,2013-09-30 22:25:00,
2013-09-30 18:30:00,65.3,56.8,30.00,South,189,0.0,0.0,74,0.00,,---,0.00,VWS V14.00,2013-09-30 22:30:00,
2013-09-30 18:35:00,65.0,56.9,30.00,South,189,0.0,0.0,75,0.00,,---,0.00,VWS V14.00,2013-09-30 22:35:00,
2013-09-30 18:40:00,64.7,56.6,30.00,South,189,0.0,0.0,75,0.00,,---,0.00,VWS V14.00,2013-09-30 22:40:00,
2013-09-30 18:45:00,64.4,56.7,30.00,South,189,0.0,0.0,76,0.00,,---,0.00,VWS V14.00,2013-09-30 22:45:00,
2013-09-30 18:50:00,64.2,56.8,30.00,South,189,0.0,0.0,77,0.00,,---,0.00,VWS V14.00,2013-09-30 22:50:00,
2013-09-30 18:55:00,64.0,56.3,30.00,South,189,0.0,0.0,76,0.00,,---,0.00,VWS V14.00,2013-09-30 22:55:00,
2013-09-30 19:00:00,63.7,56.4,30.00,South,189,0.0,0.0,77,0.00,,---,0.00,VWS V14.00,2013-09-30 23:00:00,
2013-09-30 19:05:00,63.6,56.3,30.00,South,189,0.0,0.0,77,0.00,,---,0.00,VWS V14.00,2013-09-30 23:05:00,
2013-09-30 19:10:00,63.3,56.0,30.01,South,189,0.0,0.0,77,0.00,,---,0.00,VWS V14.00,2013-09-30 23:10:00,
2013-09-30 19:15:00,62.9,55.9,30.01,South,189,0.0,0.0,78,0.00,,---,0.00,VWS V14.00,2013-09-30 23:15:00,
2013-09-30 19:20:00,62.5,55.9,30.01,South,189,0.0,0.0,79,0.00,,---,0.00,VWS V14.00,2013-09-30 23:20:00,
2013-09-30 19:25:00,62.2,56.0,30.01,South,189,0.0,0.0,80,0.00,,---,0.00,VWS V14.00,2013-09-30 23:25:00,
2013-09-30 19:30:00,61.8,55.9,30.01,South,189,0.0,0.0,81,0.00,,---,0.00,VWS V14.00,2013-09-30 23:30:00,
2013-09-30 19:35:00,61.6,56.1,30.01,South,189,0.0,0.0,82,0.00,,---,0.00,VWS V14.00,2013-09-30 23:35:00,
2013-09-30 19:41:00,61.4,55.9,30.01,South,189,0.0,0.0,82,0.00,,---,0.00,VWS V14.00,2013-09-30 23:41:00,
2013-09-30 19:46:00,61.3,56.1,30.01,South,189,0.0,0.0,83,0.00,,---,0.00,VWS V14.00,2013-09-30 23:46:00,
2013-09-30 19:51:00,61.3,56.1,30.01,South,189,0.0,0.0,83,0.00,,---,0.00,VWS V14.00,2013-09-30 23:51:00,
2013-09-30 19:56:00,61.1,55.9,30.01,South,189,0.0,0.0,83,0.00,,---,0.00,VWS V14.00,2013-09-30 23:56:00,
2013-09-30 20:01:00,61.0,56.1,30.01,South,189,0.0,0.0,84,0.00,,---,0.00,VWS V14.00,2013-10-01 00:01:00,
2013-09-30 20:06:00,60.8,55.9,30.01,South,189,0.0,0.0,84,0.00,,---,0.00,VWS V14.00,2013-10-01 00:06:00,
2013-09-30 20:11:00,60.7,55.8,30.01,South,189,0.0,0.0,84,0.00,,---,0.00,VWS V14.00,2013-10-01 00:11:00,
2013-09-30 20:16:00,60.4,55.9,30.02,South,189,0.0,0.0,85,0.00,,---,0.00,VWS V14.00,2013-10-01 00:16:00,
2013-09-30 20:21:00,60.3,55.8,30.02,South,189,0.0,0.0,85,0.00,,---,0.00,VWS V14.00,2013-10-01 00:21:00,
2013-09-30 20:26:00,60.1,55.6,30.02,South,189,0.0,0.0,85,0.00,,---,0.00,VWS V14.00,2013-10-01 00:26:00,
2013-09-30 20:31:00,59.8,55.6,30.02,South,189,0.0,0.0,86,0.00,,---,0.00,VWS V14.00,2013-10-01 00:31:00,
2013-09-30 20:36:00,59.6,55.4,30.02,South,189,0.0,0.0,86,0.00,,---,0.00,VWS V14.00,2013-10-01 00:36:00,
2013-09-30 20:41:00,59.4,55.5,30.02,South,189,0.0,0.0,87,0.00,,---,0.00,VWS V14.00,2013-10-01 00:41:00,
2013-09-30 20:46:00,59.3,55.4,30.02,South,189,0.0,0.0,87,0.00,,---,0.00,VWS V14.00,2013-10-01 00:46:00,
2013-09-30 20:51:00,59.2,55.3,30.02,South,189,0.0,0.0,87,0.00,,---,0.00,VWS V14.00,2013-10-01 00:51:00,
2013-09-30 20:56:00,59.0,55.1,30.02,South,189,0.0,0.0,87,0.00,,---,0.00,VWS V14.00,2013-10-01 00:56:00,
2013-09-30 21:01:00,59.0,55.5,30.02,SSW,192,0.0,0.0,88,0.00,,---,0.00,VWS V14.00,2013-10-01 01:01:00,
2013-09-30 21:07:00,58.9,55.4,30.02,SSW,192,0.0,0.0,88,0.00,,---,0.00,VWS V14.00,2013-10-01 01:07:00,
2013-09-30 21:12:00,58.9,55.4,30.02,SSW,192,0.0,0.0,88,0.00,,---,0.00,VWS V14.00,2013-10-01 01:12:00,
2013-09-30 21:17:00,58.8,55.3,30.02,SSW,192,0.0,0.0,88,0.00,,---,0.00,VWS V14.00,2013-10-01 01:17:00,
2013-09-30 21:22:00,58.7,55.2,30.02,SSW,192,0.0,0.0,88,0.00,,---,0.00,VWS V14.00,2013-10-01 01:22:00,
2013-09-30 21:27:00,58.7,55.2,30.02,SSW,192,0.0,0.0,88,0.00,,---,0.00,VWS V14.00,2013-10-01 01:27:00,
2013-09-30 21:32:00,58.6,55.1,30.02,SSW,192,0.0,0.0,88,0.00,,---,0.00,VWS V14.00,2013-10-01 01:32:00,
2013-09-30 21:37:00,58.5,55.0,30.02,SSW,192,0.0,0.0,88,0.00,,---,0.00,VWS V14.00,2013-10-01 01:37:00,
2013-09-30 21:42:00,58.4,54.9,30.02,SSW,192,0.0,0.0,88,0.00,,---,0.00,VWS V14.00,2013-10-01 01:42:00,
2013-09-30 21:47:00,58.2,55.0,30.03,SSW,192,0.0,0.0,89,0.00,,---,0.00,VWS V14.00,2013-10-01 01:47:00,
2013-09-30 21:52:00,58.1,54.9,30.03,SSW,192,0.0,0.0,89,0.00,,---,0.00,VWS V14.00,2013-10-01 01:52:00,
2013-09-30 21:57:00,58.0,54.8,30.03,SSW,192,0.0,0.0,89,0.00,,---,0.00,VWS V14.00,2013-10-01 01:57:00,
2013-09-30 22:02:00,57.8,54.6,30.03,SSW,192,0.0,0.0,89,0.00,,---,0.00,VWS V14.00,2013-10-01 02:02:00,
2013-09-30 22:07:00,57.7,54.5,30.03,SSW,192,0.0,0.0,89,0.00,,---,0.00,VWS V14.00,2013-10-01 02:07:00,
2013-09-30 22:12:00,57.7,54.5,30.03,SSW,192,0.0,0.0,89,0.00,,---,0.00,VWS V14.00,2013-10-01 02:12:00,
2013-09-30 22:17:00,57.5,54.3,30.03,SSW,192,0.0,0.0,89,0.00,,---,0.00,VWS V14.00,2013-10-01 02:17:00,
2013-09-30 22:22:00,57.4,54.5,30.03,West,263,0.0,1.0,90,0.00,,---,0.00,VWS V14.00,2013-10-01 02:22:00,
2013-09-30 22:27:00,57.2,54.3,30.03,West,263,0.0,0.0,90,0.00,,---,0.00,VWS V14.00,2013-10-01 02:27:00,
2013-09-30 22:32:00,57.1,54.2,30.03,West,263,0.0,0.0,90,0.00,,---,0.00,VWS V14.00,2013-10-01 02:32:00,
2013-09-30 22:37:00,56.9,54.0,30.03,West,263,0.0,0.0,90,0.00,,---,0.00,VWS V14.00,2013-10-01 02:37:00,
2013-09-30 22:43:00,56.8,53.9,30.03,West,263,0.0,0.0,90,0.00,,---,0.00,VWS V14.00,2013-10-01 02:43:00,
2013-09-30 22:48:00,56.7,54.1,30.03,West,263,0.0,0.0,91,0.00,,---,0.00,VWS V14.00,2013-10-01 02:48:00,
2013-09-30 22:53:00,56.7,54.1,30.03,West,263,0.0,0.0,91,0.00,,---,0.00,VWS V14.00,2013-10-01 02:53:00,
2013-09-30 22:58:00,56.6,54.0,30.03,West,263,0.0,0.0,91,0.00,,---,0.00,VWS V14.00,2013-10-01 02:58:00,
2013-09-30 23:03:00,56.6,54.0,30.03,West,263,0.0,0.0,91,0.00,,---,0.00,VWS V14.00,2013-10-01 03:03:00,
2013-09-30 23:08:00,56.6,54.0,30.03,West,263,0.0,0.0,91,0.00,,---,0.00,VWS V14.00,2013-10-01 03:08:00,
2013-09-30 23:14:00,56.5,54.2,30.02,West,263,0.0,0.0,92,0.00,,---,0.00,VWS V14.00,2013-10-01 03:14:00,
2013-09-30 23:19:00,56.5,54.2,30.02,West,263,0.0,1.0,92,0.00,,---,0.00,VWS V14.00,2013-10-01 03:19:00,
2013-09-30 23:24:00,56.4,54.1,30.02,West,263,0.0,0.0,92,0.00,,---,0.00,VWS V14.00,2013-10-01 03:24:00,
2013-09-30 23:29:00,56.4,54.1,30.02,West,263,0.0,0.0,92,0.00,,---,0.00,VWS V14.00,2013-10-01 03:29:00,
2013-09-30 23:30:00,56.4,54.1,30.02,West,263,0.0,0.0,92,0.00,,---,0.00,VWS V14.00,2013-10-01 03:30:00,
2013-09-30 23:34:00,56.4,54.1,30.02,West,263,0.0,0.0,92,0.00,,---,0.00,VWS V14.00,2013-10-01 03:34:00,
2013-09-30 23:39:00,56.4,54.1,30.02,West,263,0.0,0.0,92,0.00,,---,0.00,VWS V14.00,2013-10-01 03:39:00,
2013-09-30 23:44:00,56.3,54.0,30.02,West,263,0.0,0.0,92,0.00,,---,0.00,VWS V14.00,2013-10-01 03:44:00,
2013-09-30 23:49:00,56.3,54.0,30.02,West,263,0.0,0.0,92,0.00,,---,0.00,VWS V14.00,2013-10-01 03:49:00,
2013-09-30 23:54:00,56.3,54.0,30.02,West,263,0.0,0.0,92,0.00,,---,0.00,VWS V14.00,2013-10-01 03:54:00,
2013-09-30 23:59:00,56.3,54.0,30.02,West,263,0.0,0.0,92,0.00,,---,0.00,VWS V14.00,2013-10-01 03:59:00,